createdAt,value
2019-04-22T00:01:55.379Z,11.27
2019-04-22T00:04:37.078Z,11.34
2019-04-22T00:07:15.913Z,11.27
2019-04-22T00:10:03.375Z,11.39
2019-04-22T00:12:27.164Z,11.44
2019-04-22T00:14:52.531Z,11.35
2019-04-22T00:17:40.073Z,11.34
2019-04-22T00:20:04.995Z,11.32
2019-04-22T00:22:38.679Z,11.30
2019-04-22T00:25:17.812Z,11.17
2019-04-22T00:27:51.172Z,11.09
2019-04-22T00:30:18.117Z,11.13
2019-04-22T00:33:16.484Z,11.11
2019-04-22T00:35:49.334Z,11.01
2019-04-22T00:38:25.156Z,10.90
2019-04-22T00:40:52.131Z,10.94
2019-04-22T00:43:28.754Z,10.92
2019-04-22T00:45:55.821Z,10.90
2019-04-22T00:48:32.261Z,10.84
2019-04-22T00:51:14.366Z,10.79
2019-04-22T00:56:18.464Z,10.74
2019-04-22T01:01:31.967Z,10.62
2019-04-22T01:03:59.061Z,10.48
2019-04-22T01:08:57.775Z,10.52
2019-04-22T01:11:29.703Z,10.45
2019-04-22T01:14:00.997Z,10.42
2019-04-22T01:16:36.661Z,10.36
2019-04-22T01:19:07.629Z,10.30
2019-04-22T01:21:40.921Z,10.22
2019-04-22T01:24:10.599Z,10.15
2019-04-22T01:26:39.576Z,10.16
2019-04-22T01:29:12.676Z,9.93
2019-04-22T01:31:37.128Z,9.87
2019-04-22T01:34:24.755Z,9.87
2019-04-22T01:36:57.645Z,9.93
2019-04-22T01:39:37.506Z,10.00
2019-04-22T01:42:12.179Z,10.00
2019-04-22T01:44:59.697Z,9.92
2019-04-22T01:47:23.220Z,9.85
2019-04-22T01:49:46.166Z,9.80
2019-04-22T01:52:22.107Z,9.79
2019-04-22T01:54:55.613Z,9.76
2019-04-22T01:57:22.931Z,9.73
2019-04-22T01:59:55.216Z,9.77
2019-04-22T02:02:40.020Z,9.68
2019-04-22T02:07:42.385Z,9.74
2019-04-22T02:10:14.083Z,9.79
2019-04-22T02:12:45.716Z,9.81
2019-04-22T02:15:16.970Z,9.75
2019-04-22T02:17:57.946Z,9.69
2019-04-22T02:20:28.094Z,9.63
2019-04-22T02:26:02.471Z,9.64
2019-04-22T02:36:27.883Z,9.55
2019-04-22T02:38:59.023Z,9.48
2019-04-22T02:41:35.034Z,9.43
2019-04-22T02:44:05.714Z,9.37
2019-04-22T02:51:27.868Z,9.19
2019-04-22T02:56:49.778Z,9.23
2019-04-22T02:59:14.123Z,9.20
2019-04-22T03:01:44.952Z,9.09
2019-04-22T03:04:24.267Z,9.05
2019-04-22T03:09:23.640Z,8.98
2019-04-22T03:14:21.965Z,8.91
2019-04-22T03:17:18.466Z,8.89
2019-04-22T03:22:12.771Z,8.81
2019-04-22T03:24:38.254Z,8.79
2019-04-22T03:27:00.871Z,8.78
2019-04-22T03:40:30.444Z,8.81
2019-04-22T03:42:55.706Z,8.78
2019-04-22T03:47:57.760Z,8.70
2019-04-22T03:57:57.018Z,8.59
2019-04-22T04:00:55.825Z,8.50
2019-04-22T04:03:16.680Z,8.50
2019-04-22T04:08:35.721Z,8.37
2019-04-22T04:10:55.666Z,8.35
2019-04-22T04:13:23.111Z,8.32
2019-04-22T04:15:55.366Z,8.26
2019-04-22T04:18:44.602Z,8.25
2019-04-22T04:23:50.918Z,8.34
2019-04-22T04:26:16.927Z,8.30
2019-04-22T04:31:25.586Z,8.21
2019-04-22T04:36:28.741Z,8.23
2019-04-22T04:41:34.371Z,8.08
2019-04-22T04:51:37.611Z,8.23
2019-04-22T04:54:23.868Z,8.26
2019-04-22T04:56:50.355Z,8.24
2019-04-22T04:59:30.627Z,8.20
2019-04-22T05:09:41.167Z,8.26
2019-04-22T05:14:46.826Z,8.47
2019-04-22T05:17:12.929Z,8.51
2019-04-22T05:19:32.316Z,8.59
2019-04-22T05:22:06.059Z,8.62
2019-04-22T05:30:00.166Z,8.55
2019-04-22T05:32:17.678Z,8.65
2019-04-22T05:34:48.833Z,8.71
2019-04-22T05:39:56.414Z,8.88
2019-04-22T05:42:22.858Z,8.91
2019-04-22T05:45:03.270Z,8.95
2019-04-22T05:47:37.089Z,9.06
2019-04-22T05:50:06.490Z,9.14
2019-04-22T05:52:40.464Z,9.20
2019-04-22T05:55:14.369Z,9.26
2019-04-22T05:57:51.055Z,9.30
2019-04-22T06:05:32.078Z,9.41
2019-04-22T06:08:01.602Z,9.48
2019-04-22T06:10:39.587Z,9.54
2019-04-22T06:13:06.713Z,9.64
2019-04-22T06:15:37.563Z,9.71
2019-04-22T06:26:20.675Z,10.03
2019-04-22T06:28:47.207Z,10.15
2019-04-22T06:31:14.105Z,10.40
2019-04-22T06:33:43.982Z,10.61
2019-04-22T06:36:08.156Z,10.75
2019-04-22T06:38:39.183Z,10.88
2019-04-22T06:41:21.315Z,11.08
2019-04-22T06:43:54.384Z,11.22
2019-04-22T06:46:20.453Z,11.39
2019-04-22T06:48:56.339Z,11.52
2019-04-22T06:51:27.082Z,11.64
2019-04-22T06:54:02.470Z,11.87
2019-04-22T06:56:27.536Z,12.08
2019-04-22T06:59:06.657Z,12.26
2019-04-22T07:01:54.745Z,12.46
2019-04-22T07:04:09.449Z,12.64
2019-04-22T07:06:48.605Z,12.67
2019-04-22T07:11:43.174Z,12.52
2019-04-22T07:14:16.353Z,12.66
2019-04-22T07:16:53.364Z,12.80
2019-04-22T07:19:31.473Z,12.78
2019-04-22T07:21:57.161Z,12.91
2019-04-22T07:24:40.453Z,13.05
2019-04-22T07:27:04.704Z,13.16
2019-04-22T07:29:39.080Z,13.34
2019-04-22T07:32:06.785Z,13.55
2019-04-22T07:34:49.258Z,13.82
2019-04-22T07:39:47.973Z,14.25
2019-04-22T07:42:26.466Z,14.34
2019-04-22T07:50:03.969Z,14.57
2019-04-22T07:55:02.124Z,15.04
2019-04-22T08:02:44.073Z,15.26
2019-04-22T08:05:17.189Z,15.38
2019-04-22T08:07:49.233Z,15.66
2019-04-22T08:13:01.827Z,15.98
2019-04-22T08:15:31.264Z,16.13
2019-04-22T08:20:35.075Z,16.30
2019-04-22T08:23:09.651Z,16.34
2019-04-22T08:25:38.920Z,16.21
2019-04-22T08:28:10.433Z,15.98
2019-04-22T08:30:47.727Z,16.16
2019-04-22T08:33:22.043Z,16.20
2019-04-22T08:38:33.740Z,16.65
2019-04-22T08:41:33.525Z,16.86
2019-04-22T08:43:57.695Z,16.92
2019-04-22T08:46:31.726Z,17.20
2019-04-22T08:51:29.453Z,17.23
2019-04-22T08:59:12.313Z,17.33
2019-04-22T09:01:38.063Z,17.48
2019-04-22T09:04:27.849Z,17.75
2019-04-22T09:09:25.014Z,17.76
2019-04-22T09:11:57.752Z,17.77
2019-04-22T09:14:32.436Z,17.94
2019-04-22T09:16:54.761Z,18.10
2019-04-22T09:19:30.446Z,18.18
2019-04-22T09:22:08.239Z,18.29
2019-04-22T09:24:39.006Z,18.12
2019-04-22T09:27:11.190Z,18.31
2019-04-22T09:34:50.231Z,18.42
2019-04-22T09:40:10.643Z,18.61
2019-04-22T09:42:24.748Z,18.67
2019-04-22T09:44:53.806Z,18.63
2019-04-22T09:47:33.816Z,18.61
2019-04-22T09:50:12.658Z,18.77
2019-04-22T09:52:37.509Z,18.77
2019-04-22T09:57:40.738Z,18.92
2019-04-22T10:00:17.916Z,19.16
2019-04-22T10:02:47.749Z,19.25
2019-04-22T10:05:20.935Z,19.21
2019-04-22T10:07:52.492Z,19.36
2019-04-22T10:10:22.173Z,19.50
2019-04-22T10:12:55.734Z,19.48
2019-04-22T10:15:37.622Z,19.55
2019-04-22T10:18:09.321Z,19.68
2019-04-22T10:20:42.892Z,19.71
2019-04-22T10:23:12.833Z,19.57
2019-04-22T10:25:46.049Z,19.66
2019-04-22T10:33:14.929Z,20.09
2019-04-22T10:35:32.429Z,20.14
2019-04-22T10:38:03.938Z,20.25
2019-04-22T10:40:36.530Z,20.49
2019-04-22T10:43:09.562Z,20.48
2019-04-22T10:45:41.812Z,20.61
2019-04-22T10:48:14.570Z,20.53
2019-04-22T10:50:48.737Z,20.71
2019-04-22T10:53:21.546Z,20.73
2019-04-22T10:55:53.999Z,20.71
2019-04-22T10:58:26.567Z,20.77
2019-04-22T11:00:58.163Z,20.51
2019-04-22T11:03:31.128Z,20.56
2019-04-22T11:06:03.268Z,20.80
2019-04-22T11:08:45.822Z,20.84
2019-04-22T11:11:21.441Z,20.95
2019-04-22T11:13:40.218Z,21.18
2019-04-22T11:16:11.748Z,21.09
2019-04-22T11:18:43.493Z,21.21
2019-04-22T11:21:15.669Z,21.34
2019-04-22T11:23:47.039Z,21.54
2019-04-22T11:26:17.966Z,21.40
2019-04-22T11:28:49.729Z,21.54
2019-04-22T11:31:20.843Z,21.86
2019-04-22T11:33:52.507Z,22.15
2019-04-22T11:36:25.623Z,21.94
2019-04-22T11:39:01.601Z,21.85
2019-04-22T11:41:28.914Z,21.97
2019-04-22T11:44:01.316Z,22.06
2019-04-22T11:46:33.577Z,22.11
2019-04-22T11:49:05.876Z,22.13
2019-04-22T11:51:38.064Z,22.22
2019-04-22T11:54:10.432Z,22.23
2019-04-22T11:56:42.964Z,22.21
2019-04-22T11:59:15.086Z,22.40
2019-04-22T12:01:46.828Z,22.48
2019-04-22T12:04:18.175Z,22.42
2019-04-22T12:06:49.717Z,22.49
2019-04-22T12:09:23.650Z,22.48
2019-04-22T12:11:55.965Z,22.62
2019-04-22T12:14:27.766Z,22.45
2019-04-22T12:16:59.432Z,22.89
2019-04-22T12:19:31.295Z,22.64
2019-04-22T12:22:02.882Z,22.84
2019-04-22T12:24:36.354Z,23.03
2019-04-22T12:27:08.668Z,22.97
2019-04-22T12:29:40.717Z,23.00
2019-04-22T12:32:11.774Z,23.14
2019-04-22T12:34:43.680Z,23.22
2019-04-22T12:37:22.329Z,23.38
2019-04-22T12:39:47.791Z,23.44
2019-04-22T12:42:21.399Z,23.32
2019-04-22T12:44:53.921Z,23.42
2019-04-22T12:47:26.261Z,23.35
2019-04-22T12:50:11.841Z,23.41
2019-04-22T12:52:37.335Z,23.73
2019-04-22T12:55:03.859Z,23.53
2019-04-22T12:57:36.733Z,23.40
2019-04-22T13:00:11.503Z,23.63
2019-04-22T13:02:43.148Z,23.67
2019-04-22T13:05:16.224Z,23.79
2019-04-22T13:07:47.503Z,23.78
2019-04-22T13:10:20.212Z,23.78
2019-04-22T13:12:53.036Z,24.10
2019-04-22T13:15:24.238Z,24.17
2019-04-22T13:18:08.531Z,24.24
2019-04-22T13:20:28.315Z,24.01
2019-04-22T13:22:59.421Z,24.23
2019-04-22T13:25:32.330Z,24.30
2019-04-22T13:28:03.224Z,24.38
2019-04-22T13:30:34.763Z,24.30
2019-04-22T13:33:06.966Z,24.24
2019-04-22T13:35:39.462Z,24.27
2019-04-22T13:38:11.117Z,24.36
2019-04-22T13:40:59.208Z,24.36
2019-04-22T13:43:16.485Z,24.62
2019-04-22T13:45:47.827Z,24.69
2019-04-22T13:48:38.438Z,24.79
2019-04-22T13:54:35.167Z,25.04
2019-04-22T13:56:19.158Z,25.27
2019-04-22T13:58:47.389Z,25.47
2019-04-22T14:01:07.041Z,25.85
2019-04-22T14:04:07.068Z,26.19
2019-04-22T14:06:38.827Z,26.38
2019-04-22T14:09:11.473Z,26.14
2019-04-22T14:11:49.830Z,26.02
2019-04-22T14:14:15.638Z,26.14
2019-04-22T14:16:46.976Z,26.38
2019-04-22T14:19:18.405Z,26.59
2019-04-22T14:21:49.695Z,27.18
2019-04-22T14:24:21.622Z,26.71
2019-04-22T14:27:08.560Z,26.74
2019-04-22T14:29:26.079Z,26.68
2019-04-22T14:32:05.465Z,26.66
2019-04-22T14:34:30.281Z,26.97
2019-04-22T14:37:01.514Z,27.23
2019-04-22T14:39:33.863Z,27.59
2019-04-22T14:42:27.025Z,27.23
2019-04-22T14:47:36.798Z,27.92
2019-04-22T14:50:09.406Z,28.23
2019-04-22T14:52:41.139Z,27.97
2019-04-22T14:54:59.222Z,27.70
2019-04-22T14:57:21.391Z,27.57
2019-04-22T14:59:53.705Z,27.31
2019-04-22T15:02:25.564Z,27.46
2019-04-22T15:04:58.397Z,27.71
2019-04-22T15:07:30.697Z,27.76
2019-04-22T15:10:01.988Z,28.40
2019-04-22T15:12:39.171Z,28.43
2019-04-22T15:15:17.443Z,28.35
2019-04-22T15:18:00.963Z,28.79
2019-04-22T15:20:47.474Z,28.16
2019-04-22T15:23:17.362Z,28.71
2019-04-22T15:25:48.461Z,28.30
2019-04-22T15:28:19.703Z,28.10
2019-04-22T15:30:51.168Z,28.49
2019-04-22T15:33:23.559Z,28.07
2019-04-22T15:35:55.571Z,28.26
2019-04-22T15:38:28.066Z,28.57
2019-04-22T15:41:00.757Z,28.94
2019-04-22T15:43:35.105Z,29.18
2019-04-22T15:46:05.720Z,28.71
2019-04-22T15:48:38.071Z,28.86
2019-04-22T15:51:09.010Z,28.41
2019-04-22T15:53:40.104Z,28.72
2019-04-22T15:56:12.553Z,28.90
2019-04-22T15:58:43.876Z,28.89
2019-04-22T16:01:21.772Z,28.82
2019-04-22T16:03:47.424Z,28.85
2019-04-22T16:06:19.689Z,28.96
2019-04-22T16:08:52.119Z,28.60
2019-04-22T16:11:24.152Z,28.46
2019-04-22T16:13:56.622Z,28.28
2019-04-22T16:16:28.443Z,28.13
2019-04-22T16:19:00.677Z,27.88
2019-04-22T16:21:40.537Z,27.91
2019-04-22T16:24:14.074Z,27.67
2019-04-22T16:27:00.592Z,27.57
2019-04-22T16:29:31.650Z,27.60
2019-04-22T16:32:03.135Z,27.63
2019-04-22T16:34:34.254Z,27.51
2019-04-22T16:37:06.743Z,27.45
2019-04-22T16:39:38.856Z,27.23
2019-04-22T16:42:25.813Z,27.21
2019-04-22T16:44:47.405Z,27.19
2019-04-22T16:47:17.545Z,27.04
2019-04-22T16:49:49.750Z,27.03
2019-04-22T16:52:21.860Z,26.91
2019-04-22T16:54:54.885Z,26.88
2019-04-22T16:57:26.244Z,26.64
2019-04-22T16:59:58.455Z,26.45
2019-04-22T17:02:56.154Z,26.33
2019-04-22T17:06:01.444Z,26.37
2019-04-22T17:08:32.857Z,26.40
2019-04-22T17:11:04.257Z,26.32
2019-04-22T17:13:36.633Z,26.24
2019-04-22T17:16:09.773Z,26.19
2019-04-22T17:18:41.314Z,26.11
2019-04-22T17:21:14.171Z,25.88
2019-04-22T17:23:45.704Z,25.49
2019-04-22T17:26:18.742Z,25.15
2019-04-22T17:28:51.211Z,24.64
2019-04-22T17:31:24.491Z,24.11
2019-04-22T17:33:56.997Z,23.68
2019-04-22T17:36:29.807Z,23.37
2019-04-22T17:39:18.400Z,23.10
2019-04-22T17:41:56.871Z,23.09
2019-04-22T17:44:38.136Z,22.83
2019-04-22T17:47:16.315Z,23.11
2019-04-22T17:50:00.174Z,23.39
2019-04-22T17:52:30.532Z,23.30
2019-04-22T17:54:58.977Z,23.11
2019-04-22T17:57:32.571Z,22.84
2019-04-22T18:00:10.117Z,22.42
2019-04-22T18:02:32.346Z,22.33
2019-04-22T18:04:59.064Z,22.06
2019-04-22T18:08:05.495Z,22.05
2019-04-22T18:13:01.889Z,21.50
2019-04-22T18:15:26.965Z,21.43
2019-04-22T18:18:03.535Z,21.34
2019-04-22T18:20:24.057Z,21.06
2019-04-22T18:22:54.310Z,20.97
2019-04-22T18:25:33.927Z,20.73
2019-04-22T18:28:15.064Z,20.83
2019-04-22T18:30:35.242Z,20.80
2019-04-22T18:33:13.009Z,20.67
2019-04-22T18:35:46.909Z,20.36
2019-04-22T18:38:29.738Z,20.23
2019-04-22T18:41:08.958Z,20.21
2019-04-22T18:43:48.895Z,20.20
2019-04-22T18:46:23.773Z,20.02
2019-04-22T18:48:54.073Z,20.01
2019-04-22T18:51:35.224Z,20.26
2019-04-22T18:54:18.295Z,20.24
2019-04-22T18:56:52.011Z,20.08
2019-04-22T18:59:12.499Z,20.10
2019-04-22T19:01:38.075Z,19.91
2019-04-22T19:04:16.908Z,19.57
2019-04-22T19:07:04.270Z,19.32
2019-04-22T19:09:41.404Z,19.36
2019-04-22T19:12:22.774Z,19.30
2019-04-22T19:14:54.969Z,19.29
2019-04-22T19:17:30.049Z,19.33
2019-04-22T19:19:55.737Z,19.32
2019-04-22T19:22:25.288Z,19.25
2019-04-22T19:24:49.383Z,19.08
2019-04-22T19:27:25.228Z,19.13
2019-04-22T19:30:04.275Z,19.18
2019-04-22T19:32:37.321Z,18.99
2019-04-22T19:35:03.546Z,19.04
2019-04-22T19:37:33.172Z,19.14
2019-04-22T19:40:32.893Z,19.04
2019-04-22T19:45:10.768Z,18.86
2019-04-22T19:47:53.120Z,18.83
2019-04-22T19:50:23.067Z,18.69
2019-04-22T19:52:51.389Z,18.47
2019-04-22T19:55:24.565Z,18.58
2019-04-22T19:57:54.322Z,18.54
2019-04-22T20:00:53.578Z,18.55
2019-04-22T20:03:57.887Z,19.24
2019-04-22T20:06:35.350Z,19.26
2019-04-22T20:09:12.219Z,19.46
2019-04-22T20:11:41.859Z,19.65
2019-04-22T20:14:12.698Z,19.73
2019-04-22T20:16:37.420Z,19.69
2019-04-22T20:19:21.948Z,19.28
2019-04-22T20:21:51.803Z,19.18
2019-04-22T20:24:10.035Z,19.13
2019-04-22T20:27:16.352Z,19.46
2019-04-22T20:29:36.615Z,19.66
2019-04-22T20:32:07.368Z,19.77
2019-04-22T20:34:38.167Z,20.02
2019-04-22T20:39:44.172Z,19.77
2019-04-22T20:42:23.872Z,19.79
2019-04-22T20:44:55.067Z,19.69
2019-04-22T20:47:14.977Z,19.68
2019-04-22T20:49:54.587Z,19.31
2019-04-22T20:54:55.817Z,19.26
2019-04-22T20:57:32.849Z,19.00
2019-04-22T20:59:55.935Z,18.81
2019-04-22T21:02:27.511Z,18.91
2019-04-22T21:04:56.014Z,18.88
2019-04-22T21:07:31.428Z,19.18
2019-04-22T21:10:09.011Z,18.92
2019-04-22T21:12:36.251Z,18.91
2019-04-22T21:15:20.081Z,18.97
2019-04-22T21:17:44.818Z,18.96
2019-04-22T21:20:28.709Z,18.79
2019-04-22T21:22:58.254Z,18.66
2019-04-22T21:25:20.785Z,18.48
2019-04-22T21:28:06.587Z,18.57
2019-04-22T21:30:32.037Z,18.35
2019-04-22T21:33:04.072Z,18.47
2019-04-22T21:35:57.987Z,18.54
2019-04-22T21:38:16.643Z,18.72
2019-04-22T21:40:45.510Z,18.95
2019-04-22T21:43:18.647Z,19.02
2019-04-22T21:45:53.202Z,19.08
2019-04-22T21:48:31.327Z,19.30
2019-04-22T21:51:02.048Z,19.52
2019-04-22T21:53:41.712Z,19.42
2019-04-22T21:56:11.595Z,19.28
2019-04-22T21:58:48.366Z,19.33
2019-04-22T22:01:29.524Z,19.17
2019-04-22T22:04:12.242Z,19.05
2019-04-22T22:06:20.091Z,18.67
2019-04-22T22:09:05.859Z,18.26
2019-04-22T22:11:35.671Z,17.99
2019-04-22T22:14:07.747Z,18.28
2019-04-22T22:16:31.960Z,18.24
2019-04-22T22:19:06.679Z,18.28
2019-04-22T22:21:55.466Z,18.22
2019-04-22T22:24:34.364Z,17.75
2019-04-22T22:26:53.568Z,17.52
2019-04-22T22:29:36.850Z,17.38
2019-04-22T22:31:58.090Z,17.23
2019-04-22T22:34:30.753Z,17.11
2019-04-22T22:36:58.860Z,17.03
2019-04-22T22:39:28.114Z,16.92
2019-04-22T22:41:45.941Z,16.84
2019-04-22T22:44:24.929Z,16.95
2019-04-22T22:47:08.624Z,16.84
2019-04-22T22:49:48.288Z,16.81
2019-04-22T22:54:54.095Z,16.58
2019-04-22T22:57:28.996Z,16.62
2019-04-22T22:59:57.702Z,16.71
2019-04-22T23:02:28.401Z,16.63
2019-04-22T23:05:05.862Z,16.59
2019-04-22T23:07:37.538Z,16.50
2019-04-22T23:10:07.936Z,16.64
2019-04-22T23:12:48.725Z,16.83
2019-04-22T23:15:08.891Z,17.14
2019-04-22T23:17:26.672Z,17.19
2019-04-22T23:19:57.899Z,17.36
2019-04-22T23:22:41.626Z,17.25
2019-04-22T23:25:24.783Z,17.31
2019-04-22T23:28:04.081Z,17.35
2019-04-22T23:30:40.957Z,17.55
2019-04-22T23:33:30.837Z,17.68
2019-04-22T23:36:18.676Z,17.74
2019-04-22T23:39:00.171Z,17.73
2019-04-22T23:44:13.499Z,17.46
2019-04-22T23:46:59.896Z,17.10
2019-04-22T23:49:32.563Z,16.98
2019-04-22T23:52:14.402Z,16.80
2019-04-22T23:54:57.117Z,16.62
2019-04-22T23:57:34.835Z,16.49
